createdAt,value
2023-05-07T00:00:15.075Z,25.60
2023-05-07T00:01:15.278Z,27.10
2023-05-07T00:02:15.035Z,27.30
2023-05-07T00:03:15.232Z,27.50
2023-05-07T00:04:15.168Z,27.60
2023-05-07T00:05:16.238Z,27.30
2023-05-07T00:06:15.003Z,27.70
2023-05-07T00:07:14.999Z,27.90
2023-05-07T00:08:15.009Z,29.30
2023-05-07T00:09:14.977Z,28.80
2023-05-07T00:10:14.970Z,29.70
2023-05-07T00:11:14.955Z,30.10
2023-05-07T00:12:14.987Z,30.80
2023-05-07T00:13:15.011Z,29.60
2023-05-07T00:14:14.942Z,29.30
2023-05-07T00:15:14.935Z,30.10
2023-05-07T00:16:14.953Z,30.10
2023-05-07T00:17:14.947Z,29.90
2023-05-07T00:18:14.914Z,29.20
2023-05-07T00:19:14.908Z,30.30
2023-05-07T00:20:14.904Z,29.80
2023-05-07T00:21:15.032Z,29.50
2023-05-07T00:22:14.921Z,29.70
2023-05-07T00:23:14.871Z,28.90
2023-05-07T00:24:14.864Z,29.90
2023-05-07T00:25:14.856Z,29.80
2023-05-07T00:26:14.850Z,30.00
2023-05-07T00:27:14.863Z,30.70
2023-05-07T00:28:14.830Z,30.40
2023-05-07T00:29:14.821Z,30.00
2023-05-07T00:30:14.816Z,30.60
2023-05-07T00:31:14.843Z,30.30
2023-05-07T00:32:14.863Z,29.90
2023-05-07T00:33:14.811Z,31.00
2023-05-07T00:34:14.788Z,30.30
2023-05-07T00:35:14.776Z,31.40
2023-05-07T00:36:14.802Z,30.50
2023-05-07T00:37:14.811Z,31.20
2023-05-07T00:38:14.755Z,29.70
2023-05-07T00:39:14.762Z,29.70
2023-05-07T00:40:14.738Z,31.40
2023-05-07T00:41:14.767Z,32.40
2023-05-07T00:42:14.727Z,30.60
2023-05-07T00:43:14.717Z,31.80
2023-05-07T00:44:14.713Z,30.40
2023-05-07T00:45:14.732Z,30.50
2023-05-07T00:46:14.749Z,31.10
2023-05-07T00:47:14.685Z,30.10
2023-05-07T00:48:15.259Z,31.20
2023-05-07T00:49:14.670Z,30.80
2023-05-07T00:50:14.782Z,29.90
2023-05-07T00:51:14.655Z,31.10
2023-05-07T00:52:14.658Z,30.90
2023-05-07T00:53:14.702Z,30.60
2023-05-07T00:54:14.629Z,31.20
2023-05-07T00:55:14.645Z,31.40
2023-05-07T00:56:14.619Z,30.60
2023-05-07T00:57:14.637Z,29.10
2023-05-07T00:58:14.596Z,30.00
2023-05-07T00:59:14.621Z,30.50
2023-05-07T01:00:14.929Z,31.30
2023-05-07T01:01:14.588Z,30.90
2023-05-07T01:02:14.557Z,30.20
2023-05-07T01:03:14.555Z,31.40
2023-05-07T01:04:14.653Z,29.60
2023-05-07T01:05:14.566Z,30.40
2023-05-07T01:06:14.567Z,31.10
2023-05-07T01:07:14.533Z,31.10
2023-05-07T01:08:14.524Z,31.30
2023-05-07T01:09:14.593Z,29.90
2023-05-07T01:10:14.680Z,32.60
2023-05-07T01:11:14.495Z,32.30
2023-05-07T01:12:14.492Z,31.50
2023-05-07T01:13:14.521Z,32.20
2023-05-07T01:14:14.504Z,33.10
2023-05-07T01:15:14.470Z,31.10
2023-05-07T01:16:14.461Z,31.40
2023-05-07T01:17:14.562Z,31.50
2023-05-07T01:18:14.456Z,31.70
2023-05-07T01:19:14.465Z,31.10
2023-05-07T01:20:14.653Z,34.20
2023-05-07T01:21:14.417Z,31.70
2023-05-07T01:22:14.415Z,31.70
2023-05-07T01:23:14.440Z,32.00
2023-05-07T01:24:14.443Z,33.70
2023-05-07T01:25:14.449Z,32.00
2023-05-07T01:26:14.385Z,32.60
2023-05-07T01:27:14.371Z,31.80
2023-05-07T01:28:14.407Z,32.60
2023-05-07T01:29:14.360Z,32.50
2023-05-07T01:30:14.473Z,34.20
2023-05-07T01:31:14.376Z,33.50
2023-05-07T01:32:14.344Z,32.70
2023-05-07T01:33:14.359Z,33.00
2023-05-07T01:34:14.315Z,32.10
2023-05-07T01:35:14.310Z,33.70
2023-05-07T01:36:14.328Z,34.00
2023-05-07T01:37:14.296Z,34.60
2023-05-07T01:38:14.321Z,33.90
2023-05-07T01:39:14.288Z,34.90
2023-05-07T01:40:14.276Z,35.70
2023-05-07T01:41:14.375Z,35.60
2023-05-07T01:42:14.274Z,34.10
2023-05-07T01:43:14.274Z,34.70
2023-05-07T01:44:14.246Z,36.20
2023-05-07T01:45:14.233Z,34.10
2023-05-07T01:46:14.280Z,33.60
2023-05-07T01:47:14.256Z,34.40
2023-05-07T01:48:14.205Z,33.80
2023-05-07T01:49:14.205Z,36.30
2023-05-07T01:50:14.360Z,36.60
2023-05-07T01:51:14.191Z,37.50
2023-05-07T01:52:14.204Z,35.30
2023-05-07T01:53:14.169Z,37.40
2023-05-07T01:54:14.169Z,37.10
2023-05-07T01:55:14.153Z,37.80
2023-05-07T01:56:14.145Z,37.80
2023-05-07T01:57:14.159Z,36.00
2023-05-07T01:58:14.132Z,38.10
2023-05-07T01:59:14.119Z,38.20
2023-05-07T02:00:14.138Z,37.70
2023-05-07T02:01:14.192Z,37.20
2023-05-07T02:02:14.179Z,37.60
2023-05-07T02:03:14.176Z,36.70
2023-05-07T02:04:14.242Z,36.90
2023-05-07T02:05:14.074Z,36.90
2023-05-07T02:06:14.106Z,37.50
2023-05-07T02:07:14.063Z,37.30
2023-05-07T02:08:14.057Z,37.00
2023-05-07T02:09:14.047Z,38.50
2023-05-07T02:10:14.078Z,35.60
2023-05-07T02:11:14.051Z,36.70
2023-05-07T02:12:14.043Z,36.80
2023-05-07T02:13:14.122Z,36.60
2023-05-07T02:14:14.010Z,36.40
2023-05-07T02:15:14.031Z,37.70
2023-05-07T02:16:14.023Z,37.50
2023-05-07T02:17:13.984Z,37.40
2023-05-07T02:18:13.984Z,37.20
2023-05-07T02:19:13.984Z,35.60
2023-05-07T02:20:13.990Z,36.60
2023-05-07T02:21:13.955Z,37.30
2023-05-07T02:22:13.952Z,36.30
2023-05-07T02:23:13.940Z,36.70
2023-05-07T02:24:13.933Z,36.60
2023-05-07T02:25:13.951Z,37.20
2023-05-07T02:26:13.915Z,36.30
2023-05-07T02:27:13.911Z,36.20
2023-05-07T02:28:13.902Z,36.80
2023-05-07T02:29:14.099Z,36.80
2023-05-07T02:30:13.904Z,38.10
2023-05-07T02:31:14.878Z,36.40
2023-05-07T02:32:13.934Z,36.50
2023-05-07T02:33:13.892Z,35.90
2023-05-07T02:34:13.908Z,36.00
2023-05-07T02:35:13.845Z,35.70
2023-05-07T02:36:13.844Z,32.90
2023-05-07T02:37:13.835Z,34.80
2023-05-07T02:38:13.820Z,36.50
2023-05-07T02:39:13.833Z,34.80
2023-05-07T02:40:13.955Z,36.20
2023-05-07T02:41:13.800Z,36.40
2023-05-07T02:42:13.794Z,34.90
2023-05-07T02:43:13.791Z,33.80
2023-05-07T02:44:13.806Z,34.20
2023-05-07T02:45:13.874Z,35.10
2023-05-07T02:46:13.805Z,33.70
2023-05-07T02:47:13.752Z,34.30
2023-05-07T02:48:13.769Z,33.80
2023-05-07T02:49:13.763Z,34.60
2023-05-07T02:50:13.999Z,33.90
2023-05-07T02:51:13.742Z,35.60
2023-05-07T02:52:13.715Z,34.00
2023-05-07T02:53:13.735Z,33.30
2023-05-07T02:54:13.708Z,35.20
2023-05-07T02:55:13.696Z,34.50
2023-05-07T02:56:13.690Z,34.20
2023-05-07T02:57:13.678Z,34.60
2023-05-07T02:58:13.690Z,33.40
2023-05-07T02:59:13.665Z,35.20
2023-05-07T03:00:13.652Z,33.80
2023-05-07T03:01:13.716Z,32.40
2023-05-07T03:02:13.670Z,35.10
2023-05-07T03:03:13.688Z,34.00
2023-05-07T03:04:13.672Z,33.30
2023-05-07T03:05:13.650Z,34.10
2023-05-07T03:06:13.606Z,32.50
2023-05-07T03:07:13.637Z,33.60
2023-05-07T03:08:13.589Z,32.50
2023-05-07T03:09:13.583Z,33.00
2023-05-07T03:10:13.651Z,35.40
2023-05-07T03:11:13.570Z,34.00
2023-05-07T03:12:13.584Z,32.80
2023-05-07T03:13:13.629Z,33.10
2023-05-07T03:14:13.552Z,34.60
2023-05-07T03:15:13.608Z,33.30
2023-05-07T03:16:13.579Z,34.90
2023-05-07T03:17:13.599Z,33.70
2023-05-07T03:18:13.642Z,34.00
2023-05-07T03:19:13.509Z,34.10
2023-05-07T03:20:13.702Z,33.50
2023-05-07T03:21:13.512Z,31.40
2023-05-07T03:22:13.500Z,35.30
2023-05-07T03:23:13.461Z,34.90
2023-05-07T03:24:14.457Z,33.20
2023-05-07T03:25:13.454Z,33.50
2023-05-07T03:26:13.476Z,32.90
2023-05-07T03:27:13.459Z,33.70
2023-05-07T03:28:13.437Z,34.20
2023-05-07T03:29:13.438Z,32.20
2023-05-07T03:30:13.484Z,31.30
2023-05-07T03:31:13.481Z,33.70
2023-05-07T03:32:13.400Z,31.80
2023-05-07T03:33:13.449Z,32.20
2023-05-07T03:34:13.392Z,34.80
2023-05-07T03:35:13.425Z,36.50
2023-05-07T03:36:13.393Z,34.50
2023-05-07T03:37:13.375Z,35.60
2023-05-07T03:38:13.356Z,35.10
2023-05-07T03:39:13.349Z,34.50
2023-05-07T03:40:13.631Z,36.20
2023-05-07T03:41:13.445Z,35.30
2023-05-07T03:42:13.322Z,35.90
2023-05-07T03:43:13.323Z,35.10
2023-05-07T03:44:13.312Z,33.90
2023-05-07T03:45:13.334Z,33.40
2023-05-07T03:46:13.311Z,34.30
2023-05-07T03:47:13.286Z,34.20
2023-05-07T03:48:13.328Z,35.70
2023-05-07T03:49:13.316Z,34.30
2023-05-07T03:50:13.501Z,35.30
2023-05-07T03:51:13.254Z,36.10
2023-05-07T03:52:13.244Z,37.40
2023-05-07T03:53:13.238Z,36.30
2023-05-07T03:54:13.259Z,34.50
2023-05-07T03:55:13.240Z,33.90
2023-05-07T03:56:13.228Z,34.20
2023-05-07T03:57:13.212Z,33.80
2023-05-07T03:58:13.210Z,34.20
2023-05-07T03:59:13.230Z,33.60
2023-05-07T04:00:13.514Z,32.90
2023-05-07T04:01:13.194Z,32.80
2023-05-07T04:02:13.225Z,31.10
2023-05-07T04:03:13.220Z,34.50
2023-05-07T04:04:13.340Z,34.00
2023-05-07T04:05:13.204Z,32.70
2023-05-07T04:06:13.140Z,32.40
2023-05-07T04:07:13.144Z,32.00
2023-05-07T04:08:13.158Z,33.20
2023-05-07T04:09:13.166Z,33.20
2023-05-07T04:10:13.311Z,34.40
2023-05-07T04:11:13.101Z,33.60
2023-05-07T04:12:13.087Z,32.20
2023-05-07T04:13:13.149Z,31.00
2023-05-07T04:14:13.085Z,32.20
2023-05-07T04:15:13.090Z,33.00
2023-05-07T04:16:13.093Z,33.00
2023-05-07T04:17:14.067Z,32.40
2023-05-07T04:18:13.073Z,34.50
2023-05-07T04:19:13.038Z,34.30
2023-05-07T04:20:13.268Z,33.30
2023-05-07T04:21:13.072Z,33.90
2023-05-07T04:22:13.080Z,33.30
2023-05-07T04:23:13.030Z,34.80
2023-05-07T04:24:13.002Z,32.90
2023-05-07T04:25:13.006Z,33.60
2023-05-07T04:26:12.983Z,31.80
2023-05-07T04:27:13.036Z,33.70
2023-05-07T04:28:12.979Z,33.70
2023-05-07T04:29:12.955Z,33.20
2023-05-07T04:30:13.158Z,33.30
2023-05-07T04:31:12.954Z,29.80
2023-05-07T04:32:12.991Z,33.30
2023-05-07T04:33:13.091Z,30.80
2023-05-07T04:34:12.925Z,32.20
2023-05-07T04:35:12.912Z,31.40
2023-05-07T04:36:12.935Z,30.50
2023-05-07T04:37:12.978Z,31.20
2023-05-07T04:38:12.897Z,31.60
2023-05-07T04:39:12.885Z,33.30
2023-05-07T04:40:13.108Z,31.20
2023-05-07T04:41:12.897Z,32.20
2023-05-07T04:42:12.859Z,32.50
2023-05-07T04:43:12.850Z,30.80
2023-05-07T04:44:12.855Z,29.10
2023-05-07T04:45:12.840Z,32.70
2023-05-07T04:46:12.978Z,33.50
2023-05-07T04:47:12.820Z,29.80
2023-05-07T04:48:12.812Z,30.90
2023-05-07T04:49:12.800Z,31.60
2023-05-07T04:50:13.145Z,29.40
2023-05-07T04:51:12.812Z,31.40
2023-05-07T04:52:12.781Z,29.60
2023-05-07T04:53:12.772Z,30.00
2023-05-07T04:54:12.762Z,30.60
2023-05-07T04:55:12.779Z,31.90
2023-05-07T04:56:12.769Z,30.90
2023-05-07T04:57:12.761Z,31.80
2023-05-07T04:58:12.720Z,30.10
2023-05-07T04:59:12.733Z,30.00
2023-05-07T05:00:12.995Z,27.80
2023-05-07T05:01:12.745Z,29.30
2023-05-07T05:02:12.706Z,29.20
2023-05-07T05:03:12.787Z,29.10
2023-05-07T05:04:12.723Z,28.50
2023-05-07T05:05:12.701Z,28.60
2023-05-07T05:06:12.669Z,28.30
2023-05-07T05:07:12.661Z,29.80
2023-05-07T05:08:12.660Z,28.60
2023-05-07T05:09:12.731Z,28.10
2023-05-07T05:10:12.836Z,26.70
2023-05-07T05:11:12.629Z,24.30
2023-05-07T05:12:12.629Z,24.90
2023-05-07T05:13:12.684Z,25.20
2023-05-07T05:14:12.639Z,26.00
2023-05-07T05:15:12.614Z,26.10
2023-05-07T05:16:12.612Z,25.70
2023-05-07T05:17:12.612Z,25.60
2023-05-07T05:18:12.612Z,22.80
2023-05-07T05:19:12.610Z,24.90
2023-05-07T05:20:12.736Z,24.60
2023-05-07T05:21:12.557Z,23.70
2023-05-07T05:22:12.556Z,24.30
2023-05-07T05:23:12.580Z,23.50
2023-05-07T05:24:12.550Z,23.70
2023-05-07T05:25:12.608Z,24.40
2023-05-07T05:26:12.513Z,24.10
2023-05-07T05:27:12.518Z,23.10
2023-05-07T05:28:12.538Z,22.80
2023-05-07T05:29:12.497Z,22.50
2023-05-07T05:30:12.674Z,22.30
2023-05-07T05:31:12.538Z,21.80
2023-05-07T05:32:12.500Z,21.70
2023-05-07T05:33:12.541Z,23.10
2023-05-07T05:34:12.462Z,22.40
2023-05-07T05:35:12.460Z,22.00
2023-05-07T05:36:12.445Z,22.30
2023-05-07T05:37:12.459Z,20.50
2023-05-07T05:38:12.441Z,22.00
2023-05-07T05:39:12.424Z,20.40
2023-05-07T05:40:12.534Z,21.50
2023-05-07T05:41:12.398Z,22.10
2023-05-07T05:42:12.417Z,21.40
2023-05-07T05:43:12.390Z,21.20
2023-05-07T05:44:12.379Z,21.80
2023-05-07T05:45:12.385Z,21.70
2023-05-07T05:46:12.405Z,21.00
2023-05-07T05:47:12.382Z,21.70
2023-05-07T05:48:12.413Z,21.40
2023-05-07T05:49:12.347Z,19.20
2023-05-07T05:50:12.505Z,21.60
2023-05-07T05:51:12.364Z,22.10
2023-05-07T05:52:12.321Z,20.80
2023-05-07T05:53:12.313Z,20.90
2023-05-07T05:54:12.367Z,20.90
2023-05-07T05:55:12.307Z,21.90
2023-05-07T05:56:12.323Z,20.00
2023-05-07T05:57:12.282Z,20.70
2023-05-07T05:58:12.274Z,21.80
2023-05-07T05:59:12.315Z,22.00
2023-05-07T06:00:12.513Z,21.90
2023-05-07T06:01:12.275Z,22.00
2023-05-07T06:02:12.296Z,20.70
2023-05-07T06:03:14.312Z,19.20
2023-05-07T06:04:12.232Z,21.40
2023-05-07T06:05:12.332Z,22.30
2023-05-07T06:06:12.207Z,22.30
2023-05-07T06:07:12.212Z,22.00
2023-05-07T06:08:12.203Z,20.50
2023-05-07T06:09:13.218Z,22.70
2023-05-07T06:10:12.372Z,23.30
2023-05-07T06:11:12.169Z,23.20
2023-05-07T06:12:12.162Z,21.90
2023-05-07T06:13:12.208Z,21.30
2023-05-07T06:14:12.149Z,20.80
2023-05-07T06:15:12.179Z,22.50
2023-05-07T06:16:12.146Z,22.60
2023-05-07T06:17:12.132Z,22.50
2023-05-07T06:18:12.151Z,22.90
2023-05-07T06:19:12.140Z,22.00
2023-05-07T06:20:12.333Z,22.90
2023-05-07T06:21:12.087Z,22.80
2023-05-07T06:22:12.073Z,22.60
2023-05-07T06:23:13.093Z,23.90
2023-05-07T06:24:12.103Z,22.90
2023-05-07T06:25:12.064Z,22.60
2023-05-07T06:26:12.074Z,22.80
2023-05-07T06:27:12.049Z,23.20
2023-05-07T06:28:12.035Z,23.70
2023-05-07T06:29:12.251Z,22.60
2023-05-07T06:30:12.271Z,24.10
2023-05-07T06:31:12.021Z,26.80
2023-05-07T06:32:12.145Z,24.30
2023-05-07T06:33:12.098Z,23.80
2023-05-07T06:34:12.020Z,21.50
2023-05-07T06:35:11.983Z,23.60
2023-05-07T06:36:11.991Z,24.40
2023-05-07T06:37:11.979Z,24.50
2023-05-07T06:38:11.981Z,22.70
2023-05-07T06:39:11.950Z,22.70
2023-05-07T06:40:12.111Z,23.10
2023-05-07T06:41:11.957Z,21.80
2023-05-07T06:42:11.934Z,24.20
2023-05-07T06:43:11.950Z,23.60
2023-05-07T06:44:11.922Z,23.10
2023-05-07T06:45:11.920Z,23.10
2023-05-07T06:46:11.937Z,23.90
2023-05-07T06:47:13.805Z,24.50
2023-05-07T06:48:11.919Z,24.20
2023-05-07T06:49:11.868Z,22.50
2023-05-07T06:50:12.941Z,24.80
2023-05-07T06:51:11.860Z,25.70
2023-05-07T06:52:11.881Z,24.00
2023-05-07T06:53:11.847Z,23.80
2023-05-07T06:54:11.834Z,25.80
2023-05-07T06:55:11.831Z,23.80
2023-05-07T06:56:11.823Z,24.60
2023-05-07T06:57:11.853Z,24.80
2023-05-07T06:58:11.816Z,22.20
2023-05-07T06:59:11.813Z,24.70
2023-05-07T07:00:12.012Z,24.50
2023-05-07T07:01:11.833Z,25.90
2023-05-07T07:02:11.803Z,23.50
2023-05-07T07:03:11.777Z,24.90
2023-05-07T07:04:11.784Z,23.40
2023-05-07T07:05:11.809Z,24.10
2023-05-07T07:06:11.768Z,23.00
2023-05-07T07:07:11.757Z,23.80
2023-05-07T07:08:11.735Z,24.70
2023-05-07T07:09:11.716Z,25.10
2023-05-07T07:10:11.908Z,24.50
2023-05-07T07:11:11.742Z,21.30
2023-05-07T07:12:12.697Z,24.50
2023-05-07T07:13:11.719Z,23.30
2023-05-07T07:14:11.676Z,23.20
2023-05-07T07:15:11.679Z,24.00
2023-05-07T07:16:11.716Z,23.60
2023-05-07T07:17:11.707Z,22.60
2023-05-07T07:18:11.672Z,23.50
2023-05-07T07:19:11.651Z,22.70
2023-05-07T07:20:12.219Z,23.40
2023-05-07T07:21:12.649Z,24.20
2023-05-07T07:22:11.614Z,23.40
2023-05-07T07:23:11.611Z,22.80
2023-05-07T07:24:11.600Z,21.30
2023-05-07T07:25:11.609Z,22.20
2023-05-07T07:26:12.628Z,21.30
2023-05-07T07:27:11.585Z,21.30
2023-05-07T07:28:11.582Z,22.60
2023-05-07T07:29:11.558Z,20.90
2023-05-07T07:30:11.657Z,21.50
2023-05-07T07:31:11.575Z,20.90
2023-05-07T07:32:11.543Z,21.30
2023-05-07T07:33:11.560Z,22.40
2023-05-07T07:34:11.524Z,21.70
2023-05-07T07:35:11.540Z,20.50
2023-05-07T07:36:11.508Z,21.10
2023-05-07T07:37:11.502Z,19.50
2023-05-07T07:38:11.491Z,21.10
2023-05-07T07:39:11.502Z,20.60
2023-05-07T07:40:11.683Z,20.00
2023-05-07T07:41:11.478Z,19.50
2023-05-07T07:42:11.450Z,20.30
2023-05-07T07:43:11.446Z,20.10
2023-05-07T07:44:12.633Z,19.90
2023-05-07T07:45:11.426Z,19.90
2023-05-07T07:46:11.424Z,19.10
2023-05-07T07:47:11.463Z,18.20
2023-05-07T07:48:11.452Z,18.80
2023-05-07T07:49:11.472Z,18.80
2023-05-07T07:50:12.735Z,18.70
2023-05-07T07:51:11.377Z,19.10
2023-05-07T07:52:11.375Z,19.20
2023-05-07T07:53:11.359Z,16.50
2023-05-07T07:54:11.383Z,18.80
2023-05-07T07:55:11.342Z,19.70
2023-05-07T07:56:11.350Z,19.10
2023-05-07T07:57:11.347Z,18.60
2023-05-07T07:58:11.340Z,17.00
2023-05-07T07:59:11.342Z,17.40
2023-05-07T08:00:11.501Z,17.60
2023-05-07T08:01:11.312Z,16.00
2023-05-07T08:02:11.433Z,16.30
2023-05-07T08:03:11.734Z,14.50
2023-05-07T08:04:11.444Z,15.80
2023-05-07T08:05:11.348Z,15.50
2023-05-07T08:06:11.275Z,16.20
2023-05-07T08:07:11.258Z,15.20
2023-05-07T08:08:11.281Z,15.50
2023-05-07T08:09:11.248Z,15.10
2023-05-07T08:10:11.452Z,15.20
2023-05-07T08:11:11.238Z,15.70
2023-05-07T08:12:11.225Z,14.70
2023-05-07T08:13:11.288Z,15.20
2023-05-07T08:14:11.222Z,14.10
2023-05-07T08:15:11.208Z,12.80
2023-05-07T08:16:11.192Z,14.90
2023-05-07T08:17:11.294Z,14.10
2023-05-07T08:18:11.228Z,13.70
2023-05-07T08:19:11.203Z,13.60
2023-05-07T08:20:11.285Z,13.60
2023-05-07T08:21:11.263Z,14.60
2023-05-07T08:22:11.178Z,14.10
2023-05-07T08:23:11.225Z,13.60
2023-05-07T08:24:11.157Z,13.80
2023-05-07T08:25:11.128Z,13.50
2023-05-07T08:26:11.123Z,14.20
2023-05-07T08:27:11.136Z,12.50
2023-05-07T08:28:11.109Z,11.90
2023-05-07T08:29:11.113Z,12.40
2023-05-07T08:30:11.255Z,12.00
2023-05-07T08:31:11.131Z,12.10
2023-05-07T08:32:11.104Z,12.60
2023-05-07T08:33:11.274Z,11.70
2023-05-07T08:34:11.060Z,11.90
2023-05-07T08:35:11.046Z,11.50
2023-05-07T08:36:11.080Z,12.50
2023-05-07T08:37:11.035Z,12.10
2023-05-07T08:38:11.051Z,12.40
2023-05-07T08:39:11.018Z,11.90
2023-05-07T08:40:13.698Z,12.00
2023-05-07T08:41:11.028Z,12.10
2023-05-07T08:42:10.999Z,11.90
2023-05-07T08:43:10.994Z,12.10
2023-05-07T08:44:10.981Z,11.30
2023-05-07T08:45:11.000Z,11.40
2023-05-07T08:46:10.998Z,11.70
2023-05-07T08:47:10.950Z,11.00
2023-05-07T08:48:11.012Z,11.50
2023-05-07T08:49:10.955Z,10.60
2023-05-07T08:50:11.151Z,10.70
2023-05-07T08:51:10.913Z,10.80
2023-05-07T08:52:10.931Z,10.00
2023-05-07T08:53:10.958Z,10.30
2023-05-07T08:54:10.901Z,10.70
2023-05-07T08:55:11.210Z,10.10
2023-05-07T08:56:10.897Z,9.90
2023-05-07T08:57:10.905Z,10.30
2023-05-07T08:58:10.887Z,9.60
2023-05-07T08:59:10.892Z,10.40
2023-05-07T09:00:10.891Z,10.20
2023-05-07T09:01:10.843Z,9.70
2023-05-07T09:02:10.906Z,9.90
2023-05-07T09:03:10.889Z,9.60
2023-05-07T09:04:10.961Z,9.40
2023-05-07T09:05:11.071Z,9.70
2023-05-07T09:06:10.813Z,10.50
2023-05-07T09:07:10.796Z,9.90
2023-05-07T09:08:10.784Z,9.40
2023-05-07T09:09:10.998Z,9.50
2023-05-07T09:10:10.909Z,9.40
2023-05-07T09:11:10.761Z,9.80
2023-05-07T09:12:10.751Z,9.30
2023-05-07T09:13:10.775Z,9.80
2023-05-07T09:14:10.772Z,9.80
2023-05-07T09:15:10.919Z,9.40
2023-05-07T09:16:10.777Z,10.10
2023-05-07T09:17:10.723Z,10.00
2023-05-07T09:18:10.723Z,9.90
2023-05-07T09:19:10.730Z,9.30
2023-05-07T09:20:11.364Z,9.80
2023-05-07T09:21:11.701Z,9.90
2023-05-07T09:22:10.667Z,10.50
2023-05-07T09:23:10.710Z,9.80
2023-05-07T09:24:10.654Z,9.40
2023-05-07T09:25:11.058Z,9.60
2023-05-07T09:26:10.648Z,9.90
2023-05-07T09:27:10.629Z,9.90
2023-05-07T09:28:10.637Z,10.30
2023-05-07T09:29:10.610Z,10.30
2023-05-07T09:30:10.602Z,9.90
2023-05-07T09:31:10.674Z,10.50
2023-05-07T09:32:10.646Z,10.70
2023-05-07T09:33:10.635Z,10.10
2023-05-07T09:34:10.579Z,10.20
2023-05-07T09:35:10.733Z,10.60
2023-05-07T09:36:10.560Z,10.20
2023-05-07T09:37:10.566Z,10.30
2023-05-07T09:38:10.539Z,10.20
2023-05-07T09:39:10.540Z,9.90
2023-05-07T09:40:10.529Z,9.80
2023-05-07T09:41:10.633Z,10.20
2023-05-07T09:42:10.534Z,10.00
2023-05-07T09:43:10.499Z,10.10
2023-05-07T09:44:10.504Z,10.50
2023-05-07T09:45:10.666Z,10.60
2023-05-07T09:46:10.514Z,10.30
2023-05-07T09:47:10.499Z,9.90
2023-05-07T09:48:10.530Z,10.50
2023-05-07T09:49:11.257Z,10.60
2023-05-07T09:50:11.472Z,9.60
2023-05-07T09:51:10.478Z,10.20
2023-05-07T09:52:10.458Z,10.00
2023-05-07T09:53:10.427Z,9.90
2023-05-07T09:54:10.415Z,9.60
2023-05-07T09:55:10.528Z,10.50
2023-05-07T09:56:10.424Z,9.80
2023-05-07T09:57:10.447Z,10.80
2023-05-07T09:58:10.384Z,10.90
2023-05-07T09:59:10.384Z,10.40
2023-05-07T10:00:10.369Z,10.30
2023-05-07T10:01:10.446Z,10.60
2023-05-07T10:02:10.349Z,10.60
2023-05-07T10:03:10.437Z,9.40
2023-05-07T10:04:10.351Z,10.20
2023-05-07T10:05:10.579Z,15.00
2023-05-07T10:06:10.345Z,10.20
2023-05-07T10:07:10.313Z,9.80
2023-05-07T10:08:10.308Z,11.60
2023-05-07T10:09:10.295Z,10.30
2023-05-07T10:10:10.316Z,10.20
2023-05-07T10:11:10.301Z,9.80
2023-05-07T10:12:10.291Z,10.00
2023-05-07T10:13:10.421Z,9.10
2023-05-07T10:14:10.255Z,10.00
2023-05-07T10:15:10.582Z,10.00
2023-05-07T10:16:10.244Z,10.20
2023-05-07T10:17:10.321Z,9.90
2023-05-07T10:18:10.358Z,9.50
2023-05-07T10:19:10.226Z,9.10
2023-05-07T10:20:10.231Z,9.90
2023-05-07T10:21:10.209Z,9.30
2023-05-07T10:22:10.250Z,9.40
2023-05-07T10:23:10.182Z,9.90
2023-05-07T10:24:10.180Z,9.20
2023-05-07T10:25:10.544Z,10.10
2023-05-07T10:26:10.161Z,9.50
2023-05-07T10:27:10.164Z,9.80
2023-05-07T10:28:10.204Z,9.60
2023-05-07T10:29:10.161Z,9.60
2023-05-07T10:30:10.167Z,9.60
2023-05-07T10:31:10.151Z,8.80
2023-05-07T10:32:10.148Z,9.40
2023-05-07T10:33:10.244Z,10.10
2023-05-07T10:34:10.156Z,9.50
2023-05-07T10:35:10.248Z,10.40
2023-05-07T10:36:10.084Z,8.90
2023-05-07T10:37:10.080Z,9.70
2023-05-07T10:38:10.074Z,9.70
2023-05-07T10:39:10.086Z,10.00
2023-05-07T10:40:10.071Z,9.50
2023-05-07T10:41:10.101Z,9.20
2023-05-07T10:42:10.051Z,9.20
2023-05-07T10:43:11.152Z,9.70
2023-05-07T10:44:11.050Z,8.70
2023-05-07T10:45:10.101Z,9.40
2023-05-07T10:46:10.088Z,9.50
2023-05-07T10:47:10.000Z,8.60
2023-05-07T10:48:25.075Z,9.10
2023-05-07T10:49:11.985Z,9.10
2023-05-07T10:50:10.000Z,9.60
2023-05-07T10:51:09.971Z,8.80
2023-05-07T10:52:09.970Z,9.10
2023-05-07T10:53:09.999Z,9.00
2023-05-07T10:54:09.946Z,9.40
2023-05-07T10:55:10.099Z,9.20
2023-05-07T10:56:09.931Z,9.10
2023-05-07T10:57:09.940Z,9.00
2023-05-07T10:58:14.512Z,8.30
2023-05-07T10:59:11.903Z,9.20
2023-05-07T11:00:09.901Z,10.00
2023-05-07T11:01:10.030Z,9.90
2023-05-07T11:02:09.945Z,9.30
2023-05-07T11:03:09.915Z,9.20
2023-05-07T11:04:09.875Z,9.10
2023-05-07T11:05:10.125Z,8.90
2023-05-07T11:06:09.856Z,8.40
2023-05-07T11:07:09.880Z,8.70
2023-05-07T11:08:09.827Z,9.70
2023-05-07T11:09:09.833Z,9.60
2023-05-07T11:10:09.816Z,8.70
2023-05-07T11:11:09.829Z,8.70
2023-05-07T11:12:09.830Z,9.30
2023-05-07T11:13:09.811Z,9.50
2023-05-07T11:14:09.780Z,9.00
2023-05-07T11:15:09.900Z,8.70
2023-05-07T11:16:09.815Z,9.00
2023-05-07T11:17:09.859Z,8.60
2023-05-07T11:18:09.785Z,8.40
2023-05-07T11:19:09.745Z,8.80
2023-05-07T11:20:09.753Z,8.90
2023-05-07T11:21:09.751Z,8.60
2023-05-07T11:22:09.969Z,9.50
2023-05-07T11:23:09.717Z,9.70
2023-05-07T11:24:09.737Z,9.10
2023-05-07T11:25:09.990Z,8.50
2023-05-07T11:26:09.755Z,9.00
2023-05-07T11:27:09.697Z,9.10
2023-05-07T11:28:09.687Z,8.30
2023-05-07T11:29:09.672Z,8.40
2023-05-07T11:30:09.685Z,8.60
2023-05-07T11:31:09.718Z,8.80
2023-05-07T11:32:09.761Z,8.60
2023-05-07T11:33:09.729Z,8.40
2023-05-07T11:34:09.624Z,8.50
2023-05-07T11:35:09.672Z,8.70
2023-05-07T11:36:09.615Z,8.30
2023-05-07T11:37:09.613Z,8.60
2023-05-07T11:38:09.602Z,8.70
2023-05-07T11:39:09.590Z,8.80
2023-05-07T11:40:09.602Z,9.00
2023-05-07T11:41:09.577Z,8.50
2023-05-07T11:42:09.566Z,8.60
2023-05-07T11:43:09.553Z,8.30
2023-05-07T11:44:09.549Z,8.70
2023-05-07T11:45:09.696Z,8.80
2023-05-07T11:46:09.561Z,9.00
2023-05-07T11:47:09.528Z,9.50
2023-05-07T11:48:09.529Z,9.70
2023-05-07T11:49:09.547Z,9.30
2023-05-07T11:50:09.550Z,9.10
2023-05-07T11:51:09.490Z,10.10
2023-05-07T11:52:09.505Z,9.90
2023-05-07T11:53:09.482Z,8.80
2023-05-07T11:54:09.495Z,9.60
2023-05-07T11:55:09.631Z,9.20
2023-05-07T11:56:09.459Z,9.10
2023-05-07T11:57:09.449Z,9.50
2023-05-07T11:58:10.833Z,10.00
2023-05-07T11:59:10.461Z,9.70
2023-05-07T12:00:09.417Z,10.40
2023-05-07T12:01:09.419Z,9.50
2023-05-07T12:02:09.521Z,10.20
2023-05-07T12:03:09.607Z,10.50
2023-05-07T12:04:09.608Z,10.40
2023-05-07T12:05:09.565Z,9.80
2023-05-07T12:06:09.375Z,9.50
2023-05-07T12:07:09.368Z,9.60
2023-05-07T12:08:09.383Z,10.70
2023-05-07T12:09:09.348Z,9.40
2023-05-07T12:10:09.437Z,10.50
2023-05-07T12:11:09.346Z,11.20
2023-05-07T12:12:09.352Z,9.80
2023-05-07T12:13:09.378Z,9.60
2023-05-07T12:14:12.060Z,9.90
2023-05-07T12:15:10.519Z,9.80
2023-05-07T12:16:09.299Z,10.20
2023-05-07T12:17:09.349Z,8.80
2023-05-07T12:18:09.365Z,8.80
2023-05-07T12:19:09.287Z,9.00
2023-05-07T12:20:09.353Z,8.60
2023-05-07T12:21:09.301Z,9.30
2023-05-07T12:22:09.250Z,9.80
2023-05-07T12:23:09.263Z,10.60
2023-05-07T12:24:09.254Z,9.60
2023-05-07T12:25:09.299Z,9.40
2023-05-07T12:26:09.216Z,9.50
2023-05-07T12:27:09.256Z,10.40
2023-05-07T12:28:09.226Z,9.10
2023-05-07T12:29:09.195Z,11.00
2023-05-07T12:30:09.263Z,9.50
2023-05-07T12:31:09.267Z,11.00
2023-05-07T12:32:09.249Z,10.20
2023-05-07T12:33:09.223Z,10.10
2023-05-07T12:34:09.159Z,9.60
2023-05-07T12:35:09.221Z,10.20
2023-05-07T12:36:09.152Z,10.30
2023-05-07T12:37:09.151Z,9.50
2023-05-07T12:38:09.126Z,10.10
2023-05-07T12:39:09.121Z,10.40
2023-05-07T12:40:09.181Z,10.40
2023-05-07T12:41:09.136Z,10.00
2023-05-07T12:42:09.123Z,10.10
2023-05-07T12:43:09.104Z,10.20
2023-05-07T12:44:09.081Z,8.90
2023-05-07T12:45:09.223Z,10.40
2023-05-07T12:46:09.661Z,10.20
2023-05-07T12:47:09.059Z,10.10
2023-05-07T12:48:09.088Z,10.00
2023-05-07T12:49:09.076Z,9.50
2023-05-07T12:50:09.034Z,9.40
2023-05-07T12:51:09.053Z,9.60
2023-05-07T12:52:09.021Z,9.50
2023-05-07T12:53:09.039Z,9.80
2023-05-07T12:54:09.007Z,9.30
2023-05-07T12:55:09.332Z,10.40
2023-05-07T12:56:09.015Z,9.90
2023-05-07T12:57:08.979Z,9.90
2023-05-07T12:58:08.978Z,9.80